Ashley, MI

5:49 PM EST on December 26, 2014 (GMT -0500)
(MAC) Middleton | Change Station
CLOSE
Current Station
Personal Weather Station
Location: Middleton, MI
Elevation: 738 ft
Nearby Weather Stations

Elev 738 ft 43.18 °N, 84.71 °W | Updated 3 minutes ago

Partly Cloudy
Partly Cloudy
44.3 °F
Feels Like 44 °F
N
0.0
Wind Variable Wind from SSW
Gusts 0.0 mph

Today
High -- | Low -- °F
--% Chance of Precip.
Yesterday
High -- | Low -- °F
Precip. -- in
8:08 AM 5:08 PM
Waxing Crescent, 30% visible
Pressure 30.04 in
Visibility 10.0 miles
Clouds Overcast 3100 ft
Windchill 44 °F
Dew Point 39 °F
Humidity 81%
Rainfall 0.00 in
Snow Depth Not available.
UV 0 out of 12
Pollen .10 out of 12
Air Quality Not available.
Flu Activity Not available.
METAR KAMN 262231Z AUTO 15003KT 10SM OVC031 05/03 A3004 RMK AO2 T00510027

More Conditions Fewer Conditions

Pressure 30.04 in
Visibility 10.0 miles
Clouds Overcast 3100 ft
Windchill 44 °F
Dew Point 39 °F
Humidity 81%
Rainfall 0.00 in
Snow Depth Not available.
UV 0 out of 12
Pollen .10 out of 12
Air Quality Not available.
Flu Activity Not available.
METAR KAMN 262231Z AUTO 15003KT 10SM OVC031 05/03 A3004 RMK AO2 T00510027

More Conditions Fewer Conditions

10-Day Weather Forecast

Almanac

Astronomy

Dec. 26, 2014 Rise Set
Actual Time
Civil Twilight
Nautical Twilight
Astronomical Twilight
Moon
Length of Visible Light
Length of Day
Tomorrow will be .
, % of the Moon is Illuminated

Today's Extremes

State Highs State Lows

Community

WunderPhotos

Upload Photos

1,780,746 photos uploaded!

WunderBlogs® & News

Nearby

Air Quality

  Air Quality AQ Index Pollutant
Not available.

Snow Depth

Station Depth Elevation

Earthquake Activity

City Distance Mag. Time & Date
Minimum magnitude displayed is 2.5.

Coastal Water Temperatures

Place Temperature

Nearby Weather Stations